Mandirituba, Brazil
Current Conditions -  °F | °C
As of 9:00 AM on Tuesday 21 Oct 2014 (Local Time) from SBCT Reporting Station
Broken Clouds Broken Clouds  
Wind Chill: 57°   Ceiling: 2000
Heat Index: 57°   Visibility: 6mi
Dew Point: 50°   Wind: 7mph
Humidity: 77%   Direction: 120°ESE
Pressure: 30.24"   Gusts: NA
Location:  25.78°S, 49.33°W
Report Text: SBCT 211100Z 12006KT 9999 SCT013 BKN020 14/10 Q1024
Loading
Personal Weather Stations






























Interactive Weather Map
Tropical Storm Tracking
New forecast layout! Learn more

10-Day Weather Forecast

Advertisements
Track Severe Weather on mobile